createdAt,value
2019-01-12T00:00:19.248Z,77.39
2019-01-12T00:02:47.854Z,77.76
2019-01-12T00:05:16.561Z,77.44
2019-01-12T00:07:45.161Z,77.69
2019-01-12T00:10:14.291Z,77.76
2019-01-12T00:12:42.917Z,77.89
2019-01-12T00:15:11.531Z,78.02
2019-01-12T00:17:40.156Z,78.02
2019-01-12T00:20:09.607Z,78.03
2019-01-12T00:22:38.218Z,77.98
2019-01-12T00:25:08.365Z,79.67
2019-01-12T00:27:37.000Z,77.32
2019-01-12T00:30:08.917Z,76.62
2019-01-12T00:32:37.391Z,76.63
2019-01-12T00:35:06.720Z,76.72
2019-01-12T00:37:35.302Z,77.79
2019-01-12T00:40:05.089Z,78.68
2019-01-12T00:42:33.669Z,78.93
2019-01-12T00:45:02.274Z,79.16
2019-01-12T00:47:32.684Z,77.60
2019-01-12T00:50:01.471Z,78.20
2019-01-12T00:52:30.095Z,77.44
2019-01-12T00:54:58.631Z,76.74
2019-01-12T00:57:27.215Z,78.61
2019-01-12T00:59:55.754Z,83.13
2019-01-12T01:02:24.464Z,78.33
2019-01-12T01:04:53.092Z,76.35
2019-01-12T01:07:21.698Z,77.31
2019-01-12T01:09:50.333Z,76.69
2019-01-12T01:12:18.965Z,77.03
2019-01-12T01:14:47.489Z,77.50
2019-01-12T01:17:16.069Z,78.02
2019-01-12T01:19:44.685Z,78.49
2019-01-12T01:22:13.344Z,78.84
2019-01-12T01:24:45.762Z,77.49
2019-01-12T01:27:12.625Z,77.80
2019-01-12T01:29:41.251Z,77.69
2019-01-12T01:32:09.913Z,78.29
2019-01-12T01:34:38.512Z,79.15
2019-01-12T01:37:07.127Z,80.27
2019-01-12T01:39:35.635Z,77.48
2019-01-12T01:42:04.431Z,76.57
2019-01-12T01:44:33.024Z,76.10
2019-01-12T01:47:01.582Z,75.93
2019-01-12T01:49:30.318Z,76.55
2019-01-12T01:51:58.870Z,77.36
2019-01-12T01:54:27.485Z,77.92
2019-01-12T01:56:56.106Z,78.00
2019-01-12T01:59:24.662Z,76.96
2019-01-12T02:01:53.239Z,77.73
2019-01-12T02:04:21.841Z,77.06
2019-01-12T02:06:50.456Z,77.94
2019-01-12T02:09:19.057Z,78.33
2019-01-12T02:11:47.599Z,82.15
2019-01-12T02:14:16.190Z,77.61
2019-01-12T02:16:44.962Z,77.27
2019-01-12T02:19:13.563Z,77.45
2019-01-12T02:21:42.179Z,76.93
2019-01-12T02:24:10.765Z,77.48
2019-01-12T02:26:39.655Z,77.82
2019-01-12T02:29:08.282Z,78.01
2019-01-12T02:31:36.776Z,78.74
2019-01-12T02:34:05.482Z,78.11
2019-01-12T02:36:34.088Z,77.64
2019-01-12T02:39:02.961Z,78.27
2019-01-12T02:41:31.575Z,77.28
2019-01-12T02:44:00.240Z,77.87
2019-01-12T02:46:28.848Z,79.51
2019-01-12T02:48:58.102Z,79.65
2019-01-12T02:51:26.730Z,78.11
2019-01-12T02:53:55.281Z,76.37
2019-01-12T02:56:23.935Z,76.38
2019-01-12T02:58:52.510Z,77.15
2019-01-12T03:01:21.139Z,77.28
2019-01-12T03:03:49.763Z,76.97
2019-01-12T03:06:18.339Z,77.43
2019-01-12T03:08:46.787Z,78.33
2019-01-12T03:11:15.404Z,77.31
2019-01-12T03:13:44.016Z,77.69
2019-01-12T03:16:13.082Z,77.22
2019-01-12T03:18:41.591Z,78.29
2019-01-12T03:21:10.298Z,78.58
2019-01-12T03:23:38.920Z,80.21
2019-01-12T03:26:07.452Z,76.79
2019-01-12T03:28:36.015Z,76.25
2019-01-12T03:31:04.601Z,76.80
2019-01-12T03:33:33.203Z,76.33
2019-01-12T03:36:01.820Z,77.27
2019-01-12T03:38:30.342Z,77.37
2019-01-12T03:40:59.003Z,76.65
2019-01-12T03:43:27.626Z,77.66
2019-01-12T03:45:56.259Z,77.12
2019-01-12T03:48:24.896Z,77.58
2019-01-12T03:50:53.548Z,79.25
2019-01-12T03:53:22.124Z,78.04
2019-01-12T03:55:50.728Z,78.57
2019-01-12T03:58:19.333Z,80.47
2019-01-12T04:00:47.957Z,78.78
2019-01-12T04:03:16.563Z,77.18
2019-01-12T04:05:45.361Z,76.86
2019-01-12T04:08:13.968Z,77.12
2019-01-12T04:10:42.471Z,76.55
2019-01-12T04:13:11.089Z,77.14
2019-01-12T04:15:39.739Z,77.40
2019-01-12T04:18:08.349Z,78.11
2019-01-12T04:20:36.977Z,77.73
2019-01-12T04:23:05.590Z,77.02
2019-01-12T04:25:34.567Z,77.50
2019-01-12T04:28:03.283Z,78.31
2019-01-12T04:30:31.884Z,77.86
2019-01-12T04:33:00.454Z,79.04
2019-01-12T04:35:28.988Z,79.24
2019-01-12T04:37:57.570Z,76.32
2019-01-12T04:40:26.179Z,76.91
2019-01-12T04:42:54.764Z,76.78
2019-01-12T04:45:23.422Z,76.70
2019-01-12T04:47:52.040Z,76.46
2019-01-12T04:50:20.630Z,77.22
2019-01-12T04:52:49.222Z,77.75
2019-01-12T04:55:17.939Z,77.10
2019-01-12T04:57:46.565Z,78.01
2019-01-12T05:00:16.595Z,77.24
2019-01-12T05:02:45.847Z,77.68
2019-01-12T05:05:14.975Z,78.49
2019-01-12T05:07:43.506Z,78.10
2019-01-12T05:10:13.218Z,79.66
2019-01-12T05:12:41.903Z,77.43
2019-01-12T05:15:14.365Z,77.06
2019-01-12T05:17:42.981Z,76.98
2019-01-12T05:20:19.196Z,76.94
2019-01-12T05:22:48.038Z,76.72
2019-01-12T05:25:16.642Z,77.21
2019-01-12T05:27:45.763Z,78.61
2019-01-12T05:30:17.276Z,77.94
2019-01-12T05:32:45.877Z,77.24
2019-01-12T05:35:14.451Z,77.96
2019-01-12T05:37:43.023Z,77.47
2019-01-12T05:40:11.835Z,77.26
2019-01-12T05:42:40.397Z,77.50
2019-01-12T05:45:11.326Z,81.27
2019-01-12T05:47:39.912Z,77.48
2019-01-12T05:50:10.644Z,75.59
2019-01-12T05:52:39.232Z,76.25
2019-01-12T05:55:08.964Z,76.44
2019-01-12T05:57:37.537Z,76.61
2019-01-12T06:00:09.123Z,76.72
2019-01-12T06:02:37.753Z,76.48
2019-01-12T06:05:06.343Z,77.47
2019-01-12T06:07:34.893Z,77.77
2019-01-12T06:10:04.378Z,77.69
2019-01-12T06:12:32.932Z,77.44
2019-01-12T06:15:01.397Z,77.34
2019-01-12T06:17:30.027Z,77.39
2019-01-12T06:19:58.671Z,79.23
2019-01-12T06:22:27.360Z,78.42
2019-01-12T06:24:55.940Z,76.73
2019-01-12T06:27:24.625Z,75.72
2019-01-12T06:29:53.138Z,76.46
2019-01-12T06:32:21.703Z,75.18
2019-01-12T06:34:50.208Z,75.51
2019-01-12T06:37:18.962Z,76.40
2019-01-12T06:39:47.551Z,76.40
2019-01-12T06:42:16.136Z,76.39
2019-01-12T06:44:44.742Z,76.36
2019-01-12T06:47:13.402Z,76.57
2019-01-12T06:49:41.906Z,76.38
2019-01-12T06:52:10.491Z,75.93
2019-01-12T06:54:39.178Z,76.70
2019-01-12T06:57:07.735Z,77.02
2019-01-12T06:59:36.348Z,75.78
2019-01-12T07:02:05.186Z,75.21
2019-01-12T07:04:33.752Z,75.50
2019-01-12T07:07:02.364Z,75.23
2019-01-12T07:09:30.980Z,76.51
2019-01-12T07:11:59.554Z,75.59
2019-01-12T07:14:28.179Z,76.00
2019-01-12T07:16:56.721Z,75.69
2019-01-12T07:19:25.411Z,75.19
2019-01-12T07:21:54.033Z,74.93
2019-01-12T07:24:22.728Z,75.29
2019-01-12T07:26:51.296Z,75.52
2019-01-12T07:29:19.945Z,75.74
2019-01-12T07:31:48.462Z,77.88
2019-01-12T07:34:17.102Z,76.10
2019-01-12T07:36:46.188Z,74.86
2019-01-12T07:39:14.795Z,74.33
2019-01-12T07:41:43.385Z,74.75
2019-01-12T07:44:12.015Z,75.10
2019-01-12T07:46:40.522Z,74.61
2019-01-12T07:49:09.158Z,75.38
2019-01-12T07:51:37.739Z,75.42
2019-01-12T07:54:06.402Z,75.86
2019-01-12T07:56:34.955Z,75.78
2019-01-12T07:59:03.532Z,75.73
2019-01-12T08:01:32.147Z,75.58
2019-01-12T08:04:00.725Z,75.62
2019-01-12T08:06:29.312Z,76.90
2019-01-12T08:08:57.922Z,76.43
2019-01-12T08:11:26.527Z,73.95
2019-01-12T08:13:55.148Z,73.75
2019-01-12T08:16:23.789Z,74.03
2019-01-12T08:18:52.352Z,74.56
2019-01-12T08:21:20.959Z,74.85
2019-01-12T08:23:49.559Z,74.21
2019-01-12T08:26:18.185Z,75.13
2019-01-12T08:28:46.796Z,74.91
2019-01-12T08:31:16.924Z,74.34
2019-01-12T08:33:46.496Z,74.11
2019-01-12T08:36:15.037Z,74.18
2019-01-12T08:38:43.731Z,74.93
2019-01-12T08:41:12.332Z,77.63
2019-01-12T08:43:40.854Z,77.63
2019-01-12T08:46:09.471Z,74.28
2019-01-12T08:48:38.103Z,73.84
2019-01-12T08:51:06.647Z,72.69
2019-01-12T08:53:35.259Z,73.37
2019-01-12T08:56:03.886Z,73.30
2019-01-12T08:58:32.460Z,72.92
2019-01-12T09:01:00.983Z,74.05
2019-01-12T09:03:29.420Z,73.64
2019-01-12T09:05:58.051Z,73.95
2019-01-12T09:08:26.669Z,73.82
2019-01-12T09:10:55.141Z,73.96
2019-01-12T09:13:23.686Z,73.39
2019-01-12T09:15:52.231Z,73.90
2019-01-12T09:18:20.862Z,75.71
2019-01-12T09:20:49.456Z,74.31
2019-01-12T09:23:18.077Z,73.55
2019-01-12T09:25:46.705Z,73.28
2019-01-12T09:28:15.284Z,73.06
2019-01-12T09:30:48.475Z,72.83
2019-01-12T09:33:14.240Z,72.57
2019-01-12T09:35:42.821Z,72.70
2019-01-12T09:38:11.462Z,72.86
2019-01-12T09:40:39.962Z,72.32
2019-01-12T09:43:08.620Z,72.57
2019-01-12T09:45:37.336Z,72.59
2019-01-12T09:48:06.090Z,72.43
2019-01-12T09:50:34.607Z,72.87
2019-01-12T09:53:03.233Z,73.61
2019-01-12T09:55:31.867Z,74.21
2019-01-12T09:58:00.463Z,72.44
2019-01-12T10:00:29.159Z,72.38
2019-01-12T10:02:57.773Z,71.78
2019-01-12T10:05:26.382Z,72.68
2019-01-12T10:07:55.080Z,73.05
2019-01-12T10:10:23.916Z,73.51
2019-01-12T10:12:52.532Z,73.17
2019-01-12T10:15:21.236Z,73.22
2019-01-12T10:17:49.876Z,72.86
2019-01-12T10:20:19.292Z,73.02
2019-01-12T10:22:47.878Z,73.08
2019-01-12T10:25:17.202Z,73.15
2019-01-12T10:27:45.883Z,73.25
2019-01-12T10:30:24.480Z,75.04
2019-01-12T10:32:53.103Z,71.94
2019-01-12T10:35:22.011Z,71.79
2019-01-12T10:37:50.623Z,72.71
2019-01-12T10:40:20.092Z,71.64
2019-01-12T10:42:49.297Z,72.07
2019-01-12T10:45:20.322Z,72.64
2019-01-12T10:47:49.024Z,72.77
2019-01-12T10:50:22.068Z,73.08
2019-01-12T10:52:50.791Z,73.27
2019-01-12T10:55:19.501Z,73.94
2019-01-12T10:57:48.148Z,74.28
2019-01-12T11:00:20.112Z,74.34
2019-01-12T11:02:48.760Z,75.31
2019-01-12T11:05:17.800Z,76.36
2019-01-12T11:07:47.266Z,75.28
2019-01-12T11:10:15.924Z,74.71
2019-01-12T11:12:44.504Z,75.55
2019-01-12T11:15:18.675Z,76.26
2019-01-12T11:17:47.392Z,76.77
2019-01-12T11:20:16.017Z,76.49
2019-01-12T11:22:44.960Z,76.82
2019-01-12T11:25:14.704Z,76.30
2019-01-12T11:27:44.350Z,76.74
2019-01-12T11:30:18.451Z,76.71
2019-01-12T11:32:47.305Z,77.02
2019-01-12T11:35:15.888Z,77.23
2019-01-12T11:37:44.636Z,77.98
2019-01-12T11:40:15.928Z,78.92
2019-01-12T11:42:44.580Z,79.13
2019-01-12T11:45:14.171Z,76.78
2019-01-12T11:47:42.721Z,77.39
2019-01-12T11:50:13.670Z,77.53
2019-01-12T11:52:42.456Z,78.11
2019-01-12T11:55:12.753Z,78.07
2019-01-12T11:57:41.459Z,78.06
2019-01-12T12:00:13.048Z,78.72
2019-01-12T12:02:41.711Z,78.48
2019-01-12T12:05:10.470Z,77.81
2019-01-12T12:07:39.127Z,78.72
2019-01-12T12:10:10.620Z,78.62
2019-01-12T12:12:39.312Z,78.63
2019-01-12T12:15:11.379Z,78.63
2019-01-12T12:17:39.979Z,78.58
2019-01-12T12:20:14.731Z,78.58
2019-01-12T12:22:43.307Z,77.72
2019-01-12T12:25:12.151Z,77.68
2019-01-12T12:27:40.733Z,78.10
2019-01-12T12:30:12.337Z,78.65
2019-01-12T12:32:40.971Z,78.64
2019-01-12T12:35:09.635Z,78.96
2019-01-12T12:37:38.195Z,78.84
2019-01-12T12:40:10.020Z,78.90
2019-01-12T12:42:38.606Z,78.86
2019-01-12T12:45:10.168Z,78.76
2019-01-12T12:47:38.811Z,78.57
2019-01-12T12:50:10.514Z,78.95
2019-01-12T12:52:39.028Z,81.98
2019-01-12T12:55:08.225Z,79.15
2019-01-12T12:57:36.935Z,78.20
2019-01-12T13:00:23.317Z,78.08
2019-01-12T13:02:51.950Z,78.68
2019-01-12T13:05:20.762Z,79.31
2019-01-12T13:07:49.404Z,79.19
2019-01-12T13:10:20.476Z,79.68
2019-01-12T13:12:49.096Z,79.08
2019-01-12T13:15:17.993Z,79.34
2019-01-12T13:17:47.569Z,79.27
2019-01-12T13:20:18.351Z,78.72
2019-01-12T13:22:49.362Z,79.64
2019-01-12T13:25:18.109Z,79.74
2019-01-12T13:27:47.795Z,81.15
2019-01-12T13:30:21.417Z,81.20
2019-01-12T13:32:50.116Z,79.25
2019-01-12T13:35:18.802Z,79.13
2019-01-12T13:37:48.037Z,78.77
2019-01-12T13:40:23.064Z,77.89
2019-01-12T13:42:51.731Z,79.99
2019-01-12T13:45:21.473Z,79.80
2019-01-12T13:47:50.144Z,80.40
2019-01-12T13:50:21.006Z,79.16
2019-01-12T13:52:49.673Z,79.43
2019-01-12T13:55:18.346Z,79.71
2019-01-12T13:57:48.305Z,80.17
2019-01-12T14:00:20.875Z,79.93
2019-01-12T14:02:49.502Z,80.70
2019-01-12T14:05:18.144Z,81.63
2019-01-12T14:07:47.810Z,79.44
2019-01-12T14:10:19.156Z,78.98
2019-01-12T14:12:47.829Z,78.88
2019-01-12T14:15:18.063Z,78.74
2019-01-12T14:17:46.704Z,79.59
2019-01-12T14:20:26.975Z,79.15
2019-01-12T14:22:55.611Z,78.69
2019-01-12T14:25:24.261Z,79.43
2019-01-12T14:27:54.972Z,79.18
2019-01-12T14:30:23.389Z,80.26
2019-01-12T14:32:52.050Z,79.64
2019-01-12T14:35:20.880Z,79.67
2019-01-12T14:37:50.180Z,79.90
2019-01-12T14:40:22.021Z,80.84
2019-01-12T14:42:50.640Z,79.58
2019-01-12T14:45:25.232Z,78.65
2019-01-12T14:47:53.899Z,78.62
2019-01-12T14:50:22.829Z,79.20
2019-01-12T14:52:51.489Z,79.22
2019-01-12T14:55:21.534Z,79.32
2019-01-12T14:57:50.205Z,79.40
2019-01-12T15:00:26.619Z,79.20
2019-01-12T15:02:55.251Z,78.46
2019-01-12T15:05:25.665Z,79.63
2019-01-12T15:07:54.287Z,79.64
2019-01-12T15:10:23.766Z,79.31
2019-01-12T15:12:52.683Z,79.68
2019-01-12T15:15:21.368Z,80.84
2019-01-12T15:17:49.962Z,79.87
2019-01-12T15:20:23.790Z,78.04
2019-01-12T15:22:52.450Z,79.48
2019-01-12T15:25:21.246Z,79.86
2019-01-12T15:27:49.891Z,79.29
2019-01-12T15:30:26.826Z,79.79
2019-01-12T15:32:55.499Z,78.68
2019-01-12T15:35:26.420Z,78.86
2019-01-12T15:37:55.032Z,80.15
2019-01-12T15:40:23.929Z,80.17
2019-01-12T15:42:52.628Z,80.30
2019-01-12T15:45:25.798Z,79.34
2019-01-12T15:47:54.456Z,80.22
2019-01-12T15:50:27.177Z,82.42
2019-01-12T15:52:56.219Z,81.62
2019-01-12T15:55:24.986Z,79.85
2019-01-12T15:57:53.592Z,78.52
2019-01-12T16:00:24.458Z,79.17
2019-01-12T16:02:53.031Z,79.05
2019-01-12T16:05:21.640Z,79.16
2019-01-12T16:07:50.292Z,79.68
2019-01-12T16:10:19.020Z,79.33
2019-01-12T16:12:47.636Z,79.38
2019-01-12T16:15:18.951Z,79.21
2019-01-12T16:17:47.706Z,79.18
2019-01-12T16:20:19.014Z,79.95
2019-01-12T16:22:47.672Z,79.87
2019-01-12T16:25:16.941Z,80.06
2019-01-12T16:27:45.539Z,80.29
2019-01-12T16:30:21.150Z,78.79
2019-01-12T16:32:50.118Z,77.86
2019-01-12T16:35:19.101Z,78.36
2019-01-12T16:37:47.715Z,77.89
2019-01-12T16:40:18.635Z,77.04
2019-01-12T16:42:47.294Z,78.27
2019-01-12T16:45:17.357Z,78.59
2019-01-12T16:47:45.939Z,79.13
2019-01-12T16:50:14.760Z,79.02
2019-01-12T16:52:43.586Z,78.69
2019-01-12T16:55:15.110Z,78.99
2019-01-12T16:57:43.820Z,79.11
2019-01-12T17:00:15.734Z,79.79
2019-01-12T17:02:44.324Z,80.85
2019-01-12T17:05:12.950Z,77.68
2019-01-12T17:07:42.297Z,77.32
2019-01-12T17:10:16.240Z,76.63
2019-01-12T17:12:44.863Z,77.10
2019-01-12T17:15:15.349Z,77.20
2019-01-12T17:17:44.048Z,77.68
2019-01-12T17:20:19.304Z,78.21
2019-01-12T17:22:48.758Z,78.97
2019-01-12T17:25:17.370Z,77.80
2019-01-12T17:27:45.956Z,78.38
2019-01-12T17:30:19.836Z,78.45
2019-01-12T17:32:49.093Z,78.37
2019-01-12T17:35:17.676Z,78.69
2019-01-12T17:37:47.009Z,80.97
2019-01-12T17:40:16.930Z,76.94
2019-01-12T17:42:45.581Z,76.25
2019-01-12T17:45:16.700Z,75.61
2019-01-12T17:47:45.219Z,76.17
2019-01-12T17:50:16.158Z,76.41
2019-01-12T17:52:44.977Z,77.41
2019-01-12T17:55:18.507Z,76.83
2019-01-12T17:57:47.098Z,77.35
2019-01-12T18:00:19.916Z,77.67
2019-01-12T18:02:49.260Z,77.83
2019-01-12T18:05:17.881Z,77.81
2019-01-12T18:07:46.489Z,78.33
2019-01-12T18:10:15.426Z,78.74
2019-01-12T18:12:44.024Z,80.11
2019-01-12T18:15:16.950Z,79.34
2019-01-12T18:17:45.578Z,77.05
2019-01-12T18:20:18.736Z,77.18
2019-01-12T18:22:47.372Z,76.51
2019-01-12T18:25:16.962Z,77.28
2019-01-12T18:27:45.730Z,77.49
2019-01-12T18:30:22.321Z,77.62
2019-01-12T18:32:50.935Z,78.11
2019-01-12T18:35:19.649Z,77.97
2019-01-12T18:37:48.254Z,77.95
2019-01-12T18:40:18.928Z,78.35
2019-01-12T18:42:47.536Z,77.58
2019-01-12T18:45:18.080Z,78.58
2019-01-12T18:47:46.975Z,78.44
2019-01-12T18:50:18.404Z,78.77
2019-01-12T18:52:46.938Z,76.17
2019-01-12T18:55:15.876Z,76.50
2019-01-12T18:57:44.535Z,76.05
2019-01-12T19:00:18.567Z,76.61
2019-01-12T19:02:46.985Z,76.41
2019-01-12T19:05:15.649Z,75.96
2019-01-12T19:07:44.529Z,77.12
2019-01-12T19:10:14.199Z,77.29
2019-01-12T19:12:42.793Z,76.77
2019-01-12T19:15:28.502Z,78.50
2019-01-12T19:17:57.218Z,77.29
2019-01-12T19:20:26.688Z,78.29
2019-01-12T19:22:55.455Z,78.72
2019-01-12T19:25:24.023Z,80.27
2019-01-12T19:27:52.641Z,76.87
2019-01-12T19:30:22.625Z,76.96
2019-01-12T19:32:51.273Z,76.40
2019-01-12T19:35:19.987Z,76.77
2019-01-12T19:37:49.625Z,76.66
2019-01-12T19:40:20.219Z,77.69
2019-01-12T19:42:49.588Z,76.94
2019-01-12T19:45:18.339Z,77.68
2019-01-12T19:47:47.209Z,77.87
2019-01-12T19:50:18.184Z,78.23
2019-01-12T19:52:47.102Z,78.34
2019-01-12T19:55:15.772Z,79.08
2019-01-12T19:57:44.319Z,79.07
2019-01-12T20:00:15.349Z,81.05
2019-01-12T20:02:44.018Z,77.68
2019-01-12T20:05:12.635Z,76.63
2019-01-12T20:07:41.254Z,75.98
2019-01-12T20:10:12.871Z,77.23
2019-01-12T20:12:41.453Z,77.77
2019-01-12T20:15:13.360Z,77.59
2019-01-12T20:17:41.863Z,78.00
2019-01-12T20:20:13.212Z,77.66
2019-01-12T20:22:41.937Z,78.45
2019-01-12T20:25:13.393Z,77.42
2019-01-12T20:27:41.983Z,77.62
2019-01-12T20:30:16.203Z,77.85
2019-01-12T20:32:53.689Z,78.37
2019-01-12T20:35:31.143Z,80.78
2019-01-12T20:38:08.613Z,78.61
2019-01-12T20:40:42.617Z,76.62
2019-01-12T20:43:16.613Z,76.03
2019-01-12T20:46:00.042Z,76.97
2019-01-12T20:48:43.630Z,77.59
2019-01-12T20:51:20.873Z,77.16
2019-01-12T20:54:01.357Z,78.30
2019-01-12T20:56:38.763Z,78.21
2019-01-12T20:59:12.998Z,78.04
2019-01-12T21:01:47.225Z,78.06
2019-01-12T21:04:27.590Z,78.11
2019-01-12T21:07:01.963Z,78.53
2019-01-12T21:09:39.517Z,78.61
2019-01-12T21:12:17.906Z,80.84
2019-01-12T21:14:49.540Z,76.84
2019-01-12T21:17:18.153Z,77.37
2019-01-12T21:19:48.616Z,77.30
2019-01-12T21:22:17.266Z,76.65
2019-01-12T21:24:45.913Z,77.19
2019-01-12T21:27:14.506Z,77.91
2019-01-12T21:29:43.011Z,77.79
2019-01-12T21:32:11.656Z,78.57
2019-01-12T21:34:40.248Z,77.78
2019-01-12T21:37:08.894Z,77.86
2019-01-12T21:39:37.518Z,78.36
2019-01-12T21:42:06.173Z,78.26
2019-01-12T21:44:34.817Z,78.83
2019-01-12T21:47:03.450Z,82.05
2019-01-12T21:49:32.114Z,78.26
2019-01-12T21:52:00.779Z,77.79
2019-01-12T21:54:29.383Z,77.37
2019-01-12T21:56:57.970Z,77.83
2019-01-12T21:59:26.657Z,77.04
2019-01-12T22:01:55.373Z,77.22
2019-01-12T22:04:24.650Z,76.82
2019-01-12T22:06:53.330Z,77.43
2019-01-12T22:09:21.961Z,77.63
2019-01-12T22:11:50.659Z,77.36
2019-01-12T22:14:19.333Z,79.34
2019-01-12T22:16:48.056Z,78.73
2019-01-12T22:19:16.651Z,79.35
2019-01-12T22:21:45.261Z,80.60
2019-01-12T22:24:13.951Z,80.00
2019-01-12T22:26:43.030Z,78.04
2019-01-12T22:29:11.703Z,77.60
2019-01-12T22:31:40.320Z,76.89
2019-01-12T22:34:08.908Z,77.37
2019-01-12T22:36:37.516Z,78.14
2019-01-12T22:39:08.082Z,78.53
2019-01-12T22:41:36.717Z,78.58
2019-01-12T22:44:05.304Z,77.70
2019-01-12T22:46:33.939Z,78.71
2019-01-12T22:49:02.536Z,79.14
2019-01-12T22:51:31.193Z,78.54
2019-01-12T22:53:59.799Z,78.90
2019-01-12T22:56:28.390Z,79.35
2019-01-12T22:58:56.986Z,82.52
2019-01-12T23:01:28.921Z,77.95
2019-01-12T23:03:57.468Z,77.10
2019-01-12T23:06:26.092Z,77.36
2019-01-12T23:08:54.876Z,77.52
2019-01-12T23:11:23.528Z,77.83
2019-01-12T23:13:52.121Z,78.14
2019-01-12T23:16:20.762Z,78.39
2019-01-12T23:18:49.369Z,77.33
2019-01-12T23:21:17.956Z,78.38
2019-01-12T23:23:46.689Z,77.73
2019-01-12T23:26:15.225Z,78.40
2019-01-12T23:28:43.870Z,78.13
2019-01-12T23:31:13.320Z,78.45
2019-01-12T23:33:41.954Z,81.30
2019-01-12T23:36:10.653Z,77.69
2019-01-12T23:38:39.175Z,76.47
2019-01-12T23:41:07.764Z,76.34
2019-01-12T23:43:36.392Z,76.42
2019-01-12T23:46:05.197Z,77.14
2019-01-12T23:48:33.816Z,77.43
2019-01-12T23:51:02.440Z,77.20
2019-01-12T23:53:31.010Z,77.03
2019-01-12T23:55:59.614Z,77.85
2019-01-12T23:58:28.129Z,77.25
